This is the latest recevied weather packets stored in our database for station/object LRSB. If no packets are shown the sender has not sent any weather packets the latest 1 day(s).
| Time | Temp. | Humidity | Pressure | Rain* | Wind** | Luminosity | Snow |
|---|---|---|---|---|---|---|---|
| 1777987991 | 26.11° C | 20% | 1013 hPa | - | 2.24 m/s, 70° | - | - |
| 1777985291 | 26.11° C | 21% | 1014 hPa | - | 3.13 m/s, 90° | - | - |
| 1777984391 | 26.11° C | 21% | 1014 hPa | - | 3.13 m/s, 90° | - | - |
| 1777982596 | 25° C | 21% | 1014 hPa | - | 2.68 m/s, 30° | - | - |
| 1777981698 | 25° C | 21% | 1014 hPa | - | 2.68 m/s, 30° | - | - |
| 1777980822 | 25° C | 21% | 1014 hPa | - | 2.68 m/s, 30° | - | - |
| 1777979891 | 25° C | 22% | 1015 hPa | - | 2.68 m/s, 70° | - | - |
| 1777978991 | 25° C | 22% | 1015 hPa | - | 2.68 m/s, 70° | - | - |
| 1777978092 | 23.89° C | 24% | 1015 hPa | - | 3.58 m/s, 340° | - | - |
| 1777977193 | 23.89° C | 24% | 1015 hPa | - | 3.58 m/s, 340° | - | - |
| 1777976292 | 23.89° C | 27% | 1016 hPa | - | 3.58 m/s, 330° | - | - |
| 1777975391 | 23.89° C | 27% | 1016 hPa | - | 3.58 m/s, 330° | - | - |
| 1777974492 | 23.89° C | 25% | 1016 hPa | - | 2.24 m/s, 80° | - | - |
| 1777973591 | 23.89° C | 25% | 1016 hPa | - | 2.24 m/s, 80° | - | - |
| 1777969091 | 22.22° C | 31% | 1017 hPa | - | 2.24 m/s, 10° | - | - |
| 1777968191 | 22.22° C | 31% | 1017 hPa | - | 2.24 m/s, 10° | - | - |
| 1777967306 | 20° C | 38% | 1017 hPa | - | 1.34 m/s, 30° | - | - |
| 1777966391 | 20° C | 38% | 1017 hPa | - | 1.34 m/s, 30° | - | - |
| 1777958291 | 12.22° C | 67% | 1017 hPa | - | 0.89 m/s, 60° | - | - |
| 1777957391 | 12.22° C | 67% | 1017 hPa | - | 0.89 m/s, 60° | - | - |
| 1777956491 | 10° C | 82% | 1017 hPa | - | 0.89 m/s, 80° | - | - |
| 1777955591 | 10° C | 82% | 1017 hPa | - | 0.89 m/s, 80° | - | - |
| 1777954691 | 8.89° C | 76% | 1017 hPa | - | 0.45 m/s, 110° | - | - |
| 1777953790 | 8.89° C | 76% | 1017 hPa | - | 0.45 m/s, 110° | - | - |
| 1777952891 | 7.22° C | 81% | 1017 hPa | - | 0.89 m/s, 90° | - | - |
* Rain since midnight (hover to see other rain measurements)
** Current wind speed in m/s (hover to see current wind gust speed)